createdAt,value
2019-04-10T00:02:39.867Z,98.78
2019-04-10T00:05:47.973Z,98.28
2019-04-10T00:08:55.290Z,98.09
2019-04-10T00:12:02.691Z,97.22
2019-04-10T00:15:10.095Z,98.58
2019-04-10T00:18:18.009Z,97.27
2019-04-10T00:21:35.527Z,98.96
2019-04-10T00:24:42.911Z,100.00
2019-04-10T00:27:50.784Z,100.00
2019-04-10T00:31:07.614Z,100.00
2019-04-10T00:34:25.332Z,100.00
2019-04-10T00:37:33.907Z,100.00
2019-04-10T00:40:41.964Z,100.00
2019-04-10T00:43:59.379Z,99.17
2019-04-10T00:47:06.727Z,98.69
2019-04-10T00:50:14.633Z,97.08
2019-04-10T00:53:31.406Z,96.98
2019-04-10T00:56:48.573Z,99.36
2019-04-10T01:00:06.494Z,98.99
2019-04-10T01:03:33.715Z,97.95
2019-04-10T01:06:41.055Z,98.09
2019-04-10T01:09:48.274Z,96.54
2019-04-10T01:12:56.544Z,98.33
2019-04-10T01:16:04.162Z,98.92
2019-04-10T01:19:12.074Z,98.78
2019-04-10T01:22:19.302Z,97.02
2019-04-10T01:25:26.600Z,96.55
2019-04-10T01:28:43.364Z,95.81
2019-04-10T01:31:51.222Z,96.14
2019-04-10T01:34:58.891Z,96.54
2019-04-10T01:38:06.628Z,97.85
2019-04-10T01:41:13.698Z,96.06
2019-04-10T01:44:20.922Z,95.13
2019-04-10T01:47:28.901Z,96.11
2019-04-10T01:50:36.785Z,95.83
2019-04-10T01:53:44.221Z,94.68
2019-04-10T01:56:52.130Z,96.48
2019-04-10T02:00:00.412Z,97.37
2019-04-10T02:03:22.209Z,97.48
2019-04-10T02:06:29.562Z,96.10
2019-04-10T02:09:37.193Z,96.28
2019-04-10T02:12:45.151Z,97.76
2019-04-10T02:16:02.766Z,100.00
2019-04-10T02:19:10.133Z,98.83
2019-04-10T02:22:17.519Z,100.00
2019-04-10T02:25:24.871Z,100.00
2019-04-10T02:28:33.359Z,100.00
2019-04-10T02:31:40.607Z,100.00
2019-04-10T02:34:49.142Z,99.02
2019-04-10T02:38:00.570Z,98.71
2019-04-10T02:41:06.552Z,99.98
2019-04-10T02:44:26.119Z,99.16
2019-04-10T02:47:50.911Z,98.74
2019-04-10T02:50:59.573Z,96.20
2019-04-10T02:54:07.107Z,99.67
2019-04-10T02:57:14.340Z,100.00
2019-04-10T03:00:22.470Z,97.06
2019-04-10T03:03:31.035Z,96.91
2019-04-10T03:06:47.942Z,97.58
2019-04-10T03:10:21.663Z,97.61
2019-04-10T03:13:30.933Z,97.00
2019-04-10T03:16:47.893Z,94.95
2019-04-10T03:19:56.080Z,97.84
2019-04-10T03:23:03.466Z,97.40
2019-04-10T03:26:20.271Z,97.12
2019-04-10T03:29:37.993Z,95.41
2019-04-10T03:33:07.465Z,94.34
2019-04-10T03:36:13.649Z,93.93
2019-04-10T03:39:21.599Z,95.76
2019-04-10T03:42:28.915Z,94.96
2019-04-10T03:45:36.953Z,97.08
2019-04-10T03:48:53.790Z,96.23
2019-04-10T03:51:59.309Z,98.15
2019-04-10T03:55:06.821Z,96.59
2019-04-10T03:58:23.477Z,96.87
2019-04-10T04:01:29.951Z,98.07
2019-04-10T04:04:37.694Z,100.00
2019-04-10T04:07:45.150Z,100.00
2019-04-10T04:11:03.088Z,100.00
2019-04-10T04:14:10.442Z,100.00
2019-04-10T04:17:17.681Z,100.00
2019-04-10T04:20:35.011Z,100.00
2019-04-10T04:23:42.641Z,100.00
2019-04-10T04:26:50.799Z,100.00
2019-04-10T04:30:08.432Z,100.00
2019-04-10T04:33:15.639Z,100.00
2019-04-10T04:36:22.881Z,100.00
2019-04-10T04:39:31.425Z,100.00
2019-04-10T04:42:38.828Z,98.07
2019-04-10T04:45:46.306Z,99.89
2019-04-10T04:48:54.291Z,100.00
2019-04-10T04:52:01.106Z,100.00
2019-04-10T04:55:17.889Z,100.00
2019-04-10T04:58:34.555Z,100.00
2019-04-10T05:01:42.522Z,100.00
2019-04-10T05:04:49.848Z,100.00
2019-04-10T05:08:02.234Z,100.00
2019-04-10T05:11:06.419Z,100.00
2019-04-10T05:14:13.835Z,100.00
2019-04-10T05:17:30.962Z,100.00
2019-04-10T05:20:50.480Z,100.00
2019-04-10T05:24:05.918Z,100.00
2019-04-10T05:27:14.113Z,100.00
2019-04-10T05:30:21.259Z,100.00
2019-04-10T05:33:28.879Z,100.00
2019-04-10T05:36:36.188Z,100.00
2019-04-10T05:39:50.298Z,100.00
2019-04-10T05:43:01.951Z,100.00
2019-04-10T05:46:18.649Z,100.00
2019-04-10T05:49:26.007Z,100.00
2019-04-10T05:52:43.026Z,100.00
2019-04-10T05:55:59.393Z,100.00
2019-04-10T05:59:08.546Z,100.00
2019-04-10T06:02:25.221Z,100.00
2019-04-10T06:05:42.437Z,100.00
2019-04-10T06:08:49.694Z,100.00
2019-04-10T06:11:57.371Z,100.00
2019-04-10T06:15:06.470Z,100.00
2019-04-10T06:18:13.934Z,100.00
2019-04-10T06:21:31.421Z,100.00
2019-04-10T06:24:38.789Z,100.00
2019-04-10T06:27:58.942Z,100.00
2019-04-10T06:31:06.216Z,100.00
2019-04-10T06:34:16.020Z,100.00
2019-04-10T06:37:30.628Z,100.00
2019-04-10T06:40:48.226Z,100.00
2019-04-10T06:43:55.507Z,100.00
2019-04-10T06:47:02.785Z,100.00
2019-04-10T06:50:10.659Z,100.00
2019-04-10T06:53:33.656Z,100.00
2019-04-10T06:56:50.337Z,100.00
2019-04-10T07:00:12.713Z,100.00
2019-04-10T07:03:18.948Z,100.00
2019-04-10T07:06:39.368Z,100.00
2019-04-10T07:09:35.833Z,100.00
2019-04-10T07:12:43.894Z,100.00
2019-04-10T07:15:54.501Z,100.00
2019-04-10T07:19:11.633Z,100.00
2019-04-10T07:22:28.956Z,100.00
2019-04-10T07:25:37.441Z,100.00
2019-04-10T07:28:46.411Z,100.00
2019-04-10T07:31:54.891Z,100.00
2019-04-10T07:35:03.273Z,100.00
2019-04-10T07:38:21.195Z,100.00
2019-04-10T07:41:29.347Z,100.00
2019-04-10T07:44:36.710Z,100.00
2019-04-10T07:47:44.126Z,100.00
2019-04-10T07:50:51.618Z,100.00
2019-04-10T07:53:59.756Z,100.00
2019-04-10T07:57:08.297Z,98.46
2019-04-10T08:00:25.338Z,99.50
2019-04-10T08:03:33.421Z,98.80
2019-04-10T08:06:39.560Z,99.76
2019-04-10T08:09:47.124Z,97.95
2019-04-10T08:12:54.433Z,100.00
2019-04-10T08:16:02.839Z,100.00
2019-04-10T08:19:10.415Z,94.53
2019-04-10T08:22:18.000Z,95.84
2019-04-10T08:25:25.483Z,94.45
2019-04-10T08:28:43.307Z,90.52
2019-04-10T08:31:50.614Z,92.84
2019-04-10T08:34:58.224Z,93.83
2019-04-10T08:38:05.552Z,94.72
2019-04-10T08:41:23.311Z,91.35
2019-04-10T08:44:30.528Z,93.71
2019-04-10T08:47:37.833Z,89.32
2019-04-10T08:50:46.063Z,90.76
2019-04-10T08:53:55.226Z,92.91
2019-04-10T08:57:03.289Z,90.86
2019-04-10T09:00:20.654Z,92.72
2019-04-10T09:03:27.907Z,87.13
2019-04-10T09:06:33.994Z,85.88
2019-04-10T09:09:41.606Z,88.68
2019-04-10T09:12:58.300Z,84.45
2019-04-10T09:16:15.474Z,81.22
2019-04-10T09:19:31.971Z,82.38
2019-04-10T09:23:06.686Z,78.60
2019-04-10T09:25:57.678Z,77.32
2019-04-10T09:29:06.706Z,82.81
2019-04-10T09:32:14.650Z,74.03
2019-04-10T09:35:22.820Z,73.58
2019-04-10T09:38:30.614Z,67.27
2019-04-10T09:41:38.314Z,70.88
2019-04-10T09:45:01.090Z,70.22
2019-04-10T09:48:18.670Z,63.72
2019-04-10T09:51:26.676Z,66.34
2019-04-10T09:54:34.862Z,63.60
2019-04-10T09:57:43.089Z,62.63
2019-04-10T10:01:01.551Z,62.50
2019-04-10T10:04:09.195Z,59.83
2019-04-10T10:07:16.483Z,59.54
2019-04-10T10:10:24.660Z,65.65
2019-04-10T10:13:31.856Z,70.76
2019-04-10T10:16:48.445Z,56.93
2019-04-10T10:20:07.910Z,60.85
2019-04-10T10:23:15.816Z,56.88
2019-04-10T10:26:32.980Z,56.16
2019-04-10T10:29:40.371Z,53.59
2019-04-10T10:32:48.845Z,57.83
2019-04-10T10:35:56.126Z,58.25
2019-04-10T10:39:10.580Z,65.49
2019-04-10T10:42:11.889Z,55.57
2019-04-10T10:45:29.063Z,60.36
2019-04-10T10:48:36.398Z,53.83
2019-04-10T10:51:44.695Z,50.85
2019-04-10T10:55:01.190Z,53.50
2019-04-10T10:58:17.942Z,51.94
2019-04-10T11:01:25.241Z,52.29
2019-04-10T11:04:43.271Z,53.40
2019-04-10T11:07:51.532Z,54.94
2019-04-10T11:10:59.465Z,60.04
2019-04-10T11:14:08.214Z,52.20
2019-04-10T11:17:15.794Z,55.27
2019-04-10T11:20:32.567Z,53.00
2019-04-10T11:23:49.468Z,55.48
2019-04-10T11:27:07.921Z,62.66
2019-04-10T11:30:24.921Z,52.91
2019-04-10T11:33:41.374Z,50.77
2019-04-10T11:37:16.717Z,52.95
2019-04-10T11:40:18.014Z,56.41
2019-04-10T11:43:36.206Z,53.34
2019-04-10T11:46:55.632Z,51.99
2019-04-10T11:50:16.827Z,51.93
2019-04-10T11:53:32.686Z,61.44
2019-04-10T11:56:39.138Z,50.30
2019-04-10T11:59:57.028Z,52.96
2019-04-10T12:03:16.004Z,53.85
2019-04-10T12:06:33.885Z,50.89
2019-04-10T12:13:10.187Z,50.67
2019-04-10T12:16:16.820Z,50.06
2019-04-10T12:19:25.242Z,51.10
2019-04-10T12:22:33.761Z,49.10
2019-04-10T12:25:39.871Z,48.64
2019-04-10T12:28:48.044Z,42.92
2019-04-10T12:31:56.554Z,41.52
2019-04-10T12:35:04.684Z,42.41
2019-04-10T12:38:13.240Z,42.27
2019-04-10T12:41:21.471Z,41.33
2019-04-10T12:44:29.656Z,42.72
2019-04-10T12:47:46.205Z,42.80
2019-04-10T12:50:53.391Z,42.27
2019-04-10T12:54:01.160Z,44.05
2019-04-10T12:57:08.576Z,37.71
2019-04-10T13:00:23.643Z,34.98
2019-04-10T13:03:31.361Z,35.12
2019-04-10T13:06:38.626Z,34.82
2019-04-10T13:09:46.379Z,33.66
2019-04-10T13:13:04.040Z,34.80
2019-04-10T13:16:11.978Z,33.15
2019-04-10T13:19:29.173Z,34.93
2019-04-10T13:22:38.515Z,33.55
2019-04-10T13:25:55.065Z,34.51
2019-04-10T13:28:54.635Z,33.59
2019-04-10T13:32:01.916Z,32.63
2019-04-10T13:35:10.347Z,32.67
2019-04-10T13:38:24.131Z,32.71
2019-04-10T13:41:26.618Z,34.18
2019-04-10T13:44:34.882Z,31.56
2019-04-10T13:47:42.855Z,31.51
2019-04-10T13:50:50.813Z,31.00
2019-04-10T13:53:58.530Z,29.76
2019-04-10T13:57:05.860Z,29.66
2019-04-10T14:00:33.641Z,32.46
2019-04-10T14:03:42.478Z,32.04
2019-04-10T14:06:50.022Z,30.02
2019-04-10T14:09:58.582Z,30.20
2019-04-10T14:13:07.346Z,33.04
2019-04-10T14:16:14.939Z,36.49
2019-04-10T14:19:22.171Z,29.80
2019-04-10T14:22:29.585Z,30.49
2019-04-10T14:26:39.141Z,30.33
2019-04-10T14:29:38.548Z,28.61
2019-04-10T14:32:55.309Z,29.57
2019-04-10T14:36:11.995Z,28.74
2019-04-10T14:39:28.915Z,29.62
2019-04-10T14:42:45.656Z,36.98
2019-04-10T14:46:03.155Z,30.06
2019-04-10T14:49:11.128Z,28.98
2019-04-10T14:52:18.976Z,28.49
2019-04-10T14:55:27.253Z,28.91
2019-04-10T14:58:35.403Z,30.06
2019-04-10T15:01:42.681Z,30.66
2019-04-10T15:04:51.179Z,33.21
2019-04-10T15:07:59.503Z,29.10
2019-04-10T15:11:16.305Z,28.60
2019-04-10T15:14:33.963Z,29.35
2019-04-10T15:17:42.213Z,28.54
2019-04-10T15:20:58.658Z,28.46
2019-04-10T15:24:15.415Z,30.38
2019-04-10T15:27:32.135Z,27.46
2019-04-10T15:30:48.947Z,28.06
2019-04-10T15:33:56.293Z,28.79
2019-04-10T15:37:13.163Z,29.63
2019-04-10T15:40:30.325Z,29.02
2019-04-10T15:43:37.770Z,34.74
2019-04-10T15:46:45.639Z,28.46
2019-04-10T15:49:53.546Z,27.18
2019-04-10T15:53:01.973Z,27.81
2019-04-10T15:56:19.441Z,29.01
2019-04-10T15:59:37.107Z,28.44
2019-04-10T16:02:54.388Z,28.21
2019-04-10T16:06:02.688Z,28.81
2019-04-10T16:09:10.459Z,30.55
2019-04-10T16:12:20.597Z,34.05
2019-04-10T16:15:39.311Z,32.28
2019-04-10T16:18:48.555Z,32.86
2019-04-10T16:21:56.349Z,32.49
2019-04-10T16:25:07.399Z,35.07
2019-04-10T16:28:14.635Z,34.22
2019-04-10T16:31:21.758Z,35.05
2019-04-10T16:34:29.011Z,35.17
2019-04-10T16:37:36.318Z,34.96
2019-04-10T16:40:43.832Z,35.10
2019-04-10T16:43:50.980Z,36.05
2019-04-10T16:46:58.529Z,36.20
2019-04-10T16:50:05.975Z,37.63
2019-04-10T16:53:13.826Z,36.34
2019-04-10T16:56:21.272Z,37.43
2019-04-10T16:59:28.578Z,38.06
2019-04-10T17:02:36.562Z,38.74
2019-04-10T17:05:53.615Z,38.69
2019-04-10T17:09:00.940Z,38.82
2019-04-10T17:12:09.404Z,38.08
2019-04-10T17:15:26.283Z,38.54
2019-04-10T17:18:43.451Z,39.51
2019-04-10T17:21:50.813Z,40.21
2019-04-10T17:24:58.830Z,42.29
2019-04-10T17:28:08.220Z,44.21
2019-04-10T17:31:16.220Z,45.24
2019-04-10T17:34:23.537Z,47.70
2019-04-10T17:37:31.849Z,48.33
2019-04-10T17:40:47.752Z,49.68
2019-04-10T17:43:49.465Z,50.80
2019-04-10T17:46:57.606Z,52.43
2019-04-10T17:50:18.383Z,53.83
2019-04-10T17:53:25.681Z,55.64
2019-04-10T17:56:33.004Z,56.40
2019-04-10T17:59:40.736Z,57.45
2019-04-10T18:02:57.253Z,58.73
2019-04-10T18:06:15.149Z,60.64
2019-04-10T18:09:24.810Z,60.40
2019-04-10T18:12:41.281Z,63.50
2019-04-10T18:15:57.978Z,65.31
2019-04-10T18:19:06.440Z,66.28
2019-04-10T18:22:14.266Z,67.47
2019-04-10T18:25:30.859Z,67.36
2019-04-10T18:28:38.055Z,69.48
2019-04-10T18:31:57.213Z,70.25
2019-04-10T18:35:14.235Z,69.68
2019-04-10T18:38:22.311Z,69.24
2019-04-10T18:41:38.771Z,72.68
2019-04-10T18:44:55.538Z,73.72
2019-04-10T18:48:18.664Z,76.09
2019-04-10T18:51:36.225Z,76.62
2019-04-10T18:54:43.604Z,78.31
2019-04-10T18:57:51.397Z,77.38
2019-04-10T19:01:39.049Z,76.89
2019-04-10T19:04:51.669Z,78.65
2019-04-10T19:08:16.466Z,81.47
2019-04-10T19:11:35.357Z,81.97
2019-04-10T19:14:51.314Z,83.62
2019-04-10T19:17:59.389Z,82.30
2019-04-10T19:21:07.072Z,84.65
2019-04-10T19:24:14.651Z,84.11
2019-04-10T19:27:31.886Z,85.41
2019-04-10T19:30:53.578Z,88.23
2019-04-10T19:34:14.936Z,87.70
2019-04-10T19:37:22.879Z,91.53
2019-04-10T19:40:40.384Z,92.16
2019-04-10T19:43:48.523Z,92.98
2019-04-10T19:47:06.196Z,92.10
2019-04-10T19:50:13.501Z,93.33
2019-04-10T19:53:21.330Z,94.92
2019-04-10T19:56:38.250Z,97.96
2019-04-10T19:59:46.047Z,99.01
2019-04-10T20:02:53.550Z,99.72
2019-04-10T20:06:00.749Z,99.82
2019-04-10T20:09:08.978Z,100.00
2019-04-10T20:12:26.653Z,100.00
2019-04-10T20:15:34.236Z,100.00
2019-04-10T20:18:51.079Z,100.00
2019-04-10T20:22:08.427Z,100.00
2019-04-10T20:25:16.475Z,100.00
2019-04-10T20:28:24.737Z,100.00
2019-04-10T20:31:34.173Z,100.00
2019-04-10T20:34:51.771Z,100.00
2019-04-10T20:37:59.158Z,100.00
2019-04-10T20:41:06.645Z,100.00
2019-04-10T20:44:13.955Z,100.00
2019-04-10T20:47:21.221Z,100.00
2019-04-10T20:50:28.539Z,100.00
2019-04-10T20:53:35.979Z,100.00
2019-04-10T20:56:52.768Z,100.00
2019-04-10T21:00:13.572Z,100.00
2019-04-10T21:03:20.926Z,100.00
2019-04-10T21:06:28.178Z,100.00
2019-04-10T21:09:36.141Z,100.00
2019-04-10T21:12:52.661Z,100.00
2019-04-10T21:16:00.702Z,100.00
2019-04-10T21:19:09.428Z,100.00
2019-04-10T21:22:17.016Z,100.00
2019-04-10T21:25:25.310Z,100.00
2019-04-10T21:28:32.719Z,100.00
2019-04-10T21:31:58.917Z,100.00
2019-04-10T21:35:09.511Z,100.00
2019-04-10T21:38:17.250Z,100.00
2019-04-10T21:41:24.612Z,100.00
2019-04-10T21:44:33.004Z,100.00
2019-04-10T21:47:40.436Z,100.00
2019-04-10T21:50:47.760Z,100.00
2019-04-10T21:53:55.901Z,100.00
2019-04-10T21:57:03.118Z,100.00
2019-04-10T22:00:12.234Z,100.00
2019-04-10T22:03:21.107Z,100.00
2019-04-10T22:06:59.799Z,100.00
2019-04-10T22:10:21.335Z,100.00
2019-04-10T22:13:29.971Z,100.00
2019-04-10T22:16:38.039Z,100.00
2019-04-10T22:19:45.473Z,100.00
2019-04-10T22:22:53.451Z,100.00
2019-04-10T22:26:00.774Z,100.00
2019-04-10T22:29:08.004Z,100.00
2019-04-10T22:32:16.400Z,100.00
2019-04-10T22:35:23.835Z,100.00
2019-04-10T22:38:31.123Z,100.00
2019-04-10T22:41:38.617Z,100.00
2019-04-10T22:44:48.343Z,100.00
2019-04-10T22:48:04.799Z,100.00
2019-04-10T22:51:21.767Z,100.00
2019-04-10T22:54:38.890Z,100.00
2019-04-10T22:57:55.260Z,100.00
2019-04-10T23:01:04.661Z,100.00
2019-04-10T23:04:12.260Z,100.00
2019-04-10T23:07:19.910Z,100.00
2019-04-10T23:10:27.175Z,100.00
2019-04-10T23:13:34.575Z,100.00
2019-04-10T23:16:52.495Z,100.00
2019-04-10T23:20:00.704Z,100.00
2019-04-10T23:23:08.547Z,100.00
2019-04-10T23:26:15.971Z,100.00
2019-04-10T23:29:24.265Z,100.00
2019-04-10T23:32:31.569Z,100.00
2019-04-10T23:35:38.790Z,100.00
2019-04-10T23:38:46.038Z,100.00
2019-04-10T23:41:53.361Z,100.00
2019-04-10T23:45:01.730Z,100.00
2019-04-10T23:48:09.159Z,100.00
2019-04-10T23:51:16.515Z,100.00
2019-04-10T23:54:24.721Z,100.00
2019-04-10T23:57:32.228Z,100.00
